createdAt,value
2022-08-11T00:01:06.785Z,99.90
2022-08-11T00:07:10.109Z,99.90
2022-08-11T00:13:14.951Z,99.90
2022-08-11T00:20:13.298Z,99.90
2022-08-11T00:25:49.090Z,99.90
2022-08-11T00:31:55.124Z,99.90
2022-08-11T00:37:58.586Z,99.90
2022-08-11T00:44:43.806Z,99.90
2022-08-11T00:52:03.981Z,99.90
2022-08-11T00:58:21.769Z,99.90
2022-08-11T01:04:27.693Z,99.90
2022-08-11T01:10:47.628Z,99.90
2022-08-11T01:17:09.817Z,99.90
2022-08-11T01:23:40.038Z,99.90
2022-08-11T01:30:03.929Z,99.90
2022-08-11T01:36:17.233Z,99.90
2022-08-11T01:43:02.573Z,99.90
2022-08-11T01:50:05.948Z,99.90
2022-08-11T01:55:47.542Z,99.90
2022-08-11T02:02:21.674Z,99.90
2022-08-11T02:08:44.188Z,99.90
2022-08-11T02:15:19.644Z,99.90
2022-08-11T02:21:48.495Z,99.90
2022-08-11T02:28:05.983Z,99.90
2022-08-11T02:34:40.266Z,99.90
2022-08-11T02:41:45.842Z,99.90
2022-08-11T02:48:34.963Z,99.90
2022-08-11T02:54:46.114Z,99.90
2022-08-11T03:00:57.241Z,99.90
2022-08-11T03:07:29.527Z,99.90
2022-08-11T03:13:54.702Z,99.90
2022-08-11T03:20:23.331Z,99.90
2022-08-11T03:26:38.720Z,99.90
2022-08-11T03:33:17.958Z,99.90
2022-08-11T03:39:55.551Z,99.90
2022-08-11T03:46:09.593Z,99.90
2022-08-11T03:52:33.244Z,99.90
2022-08-11T03:59:17.173Z,99.90
2022-08-11T04:05:38.461Z,99.90
2022-08-11T04:12:04.559Z,99.90
2022-08-11T04:18:43.153Z,99.90
2022-08-11T04:24:53.959Z,99.90
2022-08-11T04:31:50.491Z,99.90
2022-08-11T04:38:16.972Z,99.90
2022-08-11T04:44:27.841Z,99.90
2022-08-11T04:51:17.591Z,99.90
2022-08-11T04:58:06.143Z,99.90
2022-08-11T05:05:04.338Z,99.90
2022-08-11T05:11:12.315Z,99.90
2022-08-11T05:17:43.132Z,99.90
2022-08-11T05:24:12.817Z,99.90
2022-08-11T05:30:34.434Z,99.90
2022-08-11T05:36:45.643Z,99.90
2022-08-11T05:43:17.399Z,99.90
2022-08-11T05:49:37.783Z,99.90
2022-08-11T05:56:02.154Z,99.90
2022-08-11T06:02:08.644Z,99.90
2022-08-11T06:08:12.406Z,99.90
2022-08-11T06:14:15.799Z,99.90
2022-08-11T06:20:20.328Z,99.90
2022-08-11T06:26:22.406Z,99.90
2022-08-11T06:32:35.915Z,99.90
2022-08-11T06:38:53.496Z,99.90
2022-08-11T06:45:16.557Z,99.90
2022-08-11T06:51:18.746Z,99.90
2022-08-11T06:57:39.333Z,99.90
2022-08-11T07:03:46.790Z,99.90
2022-08-11T07:10:16.500Z,99.90
2022-08-11T07:16:25.821Z,99.90
2022-08-11T07:22:51.052Z,99.90
2022-08-11T07:28:55.379Z,99.90
2022-08-11T07:35:10.339Z,99.90
2022-08-11T07:41:21.597Z,99.90
2022-08-11T07:47:42.899Z,99.90
2022-08-11T07:53:58.334Z,99.90
2022-08-11T08:00:24.503Z,99.90
2022-08-11T08:06:52.935Z,99.90
2022-08-11T08:13:14.816Z,99.90
2022-08-11T08:19:19.006Z,99.90
2022-08-11T08:25:20.891Z,99.90
2022-08-11T08:31:23.143Z,99.90
2022-08-11T08:37:45.625Z,99.90
2022-08-11T08:43:53.477Z,99.90
2022-08-11T08:50:01.717Z,99.90
2022-08-11T08:56:06.100Z,99.90
2022-08-11T09:02:12.953Z,99.90
2022-08-11T09:08:18.623Z,99.90
2022-08-11T09:14:25.383Z,99.90
2022-08-11T09:20:29.360Z,99.90
2022-08-11T09:27:06.798Z,99.90
2022-08-11T09:33:11.421Z,99.90
2022-08-11T09:39:32.771Z,99.90
2022-08-11T09:45:40.216Z,99.90
2022-08-11T09:51:42.496Z,99.90
2022-08-11T09:58:41.932Z,99.90
2022-08-11T10:04:46.905Z,99.90
2022-08-11T10:10:49.972Z,99.90
2022-08-11T10:16:52.461Z,99.90
2022-08-11T10:23:13.067Z,99.90
2022-08-11T10:29:37.642Z,99.90
2022-08-11T10:35:47.444Z,99.90
2022-08-11T10:42:12.131Z,99.90
2022-08-11T10:48:17.560Z,99.90
2022-08-11T10:54:39.799Z,99.90
2022-08-11T11:00:41.689Z,99.90
2022-08-11T11:07:02.178Z,99.90
2022-08-11T11:13:23.126Z,99.90
2022-08-11T11:19:26.247Z,99.90
2022-08-11T11:26:06.336Z,99.90
2022-08-11T11:32:26.506Z,99.90
2022-08-11T11:38:29.433Z,99.90
2022-08-11T11:44:32.478Z,99.90
2022-08-11T11:50:37.626Z,99.90
2022-08-11T11:56:39.602Z,99.90
2022-08-11T12:02:43.061Z,99.90
2022-08-11T12:08:47.942Z,99.90
2022-08-11T12:14:49.907Z,99.90
2022-08-11T12:20:51.807Z,99.90
2022-08-11T12:27:15.690Z,99.90
2022-08-11T12:33:24.105Z,99.90
2022-08-11T12:40:16.940Z,99.90
2022-08-11T12:46:19.632Z,99.90
2022-08-11T12:52:27.374Z,99.90
2022-08-11T12:58:29.677Z,99.90
2022-08-11T13:04:50.149Z,99.90
2022-08-11T13:11:13.387Z,99.90
2022-08-11T13:17:21.722Z,99.90
2022-08-11T13:24:00.538Z,99.90
2022-08-11T13:30:23.793Z,99.90
2022-08-11T13:36:28.554Z,99.90
2022-08-11T13:42:30.793Z,99.90
2022-08-11T13:48:32.627Z,99.90
2022-08-11T13:54:39.147Z,99.60
2022-08-11T14:00:52.701Z,99.00
2022-08-11T14:07:00.344Z,96.80
2022-08-11T14:13:42.491Z,97.90
2022-08-11T14:19:53.711Z,98.40
2022-08-11T14:26:15.066Z,98.30
2022-08-11T14:32:17.200Z,97.50
2022-08-11T14:38:19.962Z,98.70
2022-08-11T14:44:40.491Z,96.60
2022-08-11T14:50:42.765Z,95.40
2022-08-11T14:56:44.887Z,94.40
2022-08-11T15:03:06.897Z,97.40
2022-08-11T15:09:09.464Z,97.70
2022-08-11T15:15:31.619Z,96.40
2022-08-11T15:21:51.802Z,97.50
2022-08-11T15:28:13.359Z,99.30
2022-08-11T15:34:38.423Z,96.90
2022-08-11T15:41:01.484Z,99.00
2022-08-11T15:47:05.443Z,96.50
2022-08-11T15:53:56.686Z,95.40
2022-08-11T16:00:24.455Z,96.00
2022-08-11T16:06:27.331Z,96.70
2022-08-11T16:12:32.584Z,95.70
2022-08-11T16:18:43.041Z,97.30
2022-08-11T16:26:38.115Z,96.40
2022-08-11T16:31:10.829Z,95.80
2022-08-11T16:37:50.965Z,97.30
2022-08-11T16:44:11.280Z,96.40
2022-08-11T16:50:14.055Z,97.80
2022-08-11T16:56:20.477Z,96.80
2022-08-11T17:02:50.998Z,97.50
2022-08-11T17:09:12.390Z,96.30
2022-08-11T17:15:37.560Z,95.00
2022-08-11T17:22:17.661Z,96.20
2022-08-11T17:28:21.898Z,96.60
2022-08-11T17:34:45.799Z,97.40
2022-08-11T17:41:18.479Z,98.50
2022-08-11T17:47:44.590Z,97.40
2022-08-11T17:54:23.676Z,97.70
2022-08-11T18:00:27.293Z,98.50
2022-08-11T18:06:34.288Z,99.90
2022-08-11T18:12:56.552Z,99.90
2022-08-11T18:19:16.992Z,99.90
2022-08-11T18:25:45.664Z,99.90
2022-08-11T18:32:08.241Z,99.90
2022-08-11T18:38:31.060Z,99.90
2022-08-11T18:44:57.415Z,99.90
2022-08-11T18:51:31.360Z,99.90
2022-08-11T18:57:58.911Z,99.90
2022-08-11T19:04:21.782Z,99.90
2022-08-11T19:10:43.068Z,99.90
2022-08-11T19:17:04.475Z,99.90
2022-08-11T19:23:27.399Z,99.90
2022-08-11T19:30:07.619Z,99.90
2022-08-11T19:36:31.312Z,99.90
2022-08-11T19:42:52.275Z,99.90
2022-08-11T19:49:15.733Z,99.90
2022-08-11T19:55:36.081Z,99.90
2022-08-11T20:02:12.465Z,99.90
2022-08-11T20:08:38.136Z,99.90
2022-08-11T20:15:01.094Z,99.90
2022-08-11T20:21:25.387Z,99.90
2022-08-11T20:27:55.669Z,99.90
2022-08-11T20:34:19.482Z,99.90
2022-08-11T20:40:43.673Z,99.90
2022-08-11T20:47:05.704Z,99.90
2022-08-11T20:53:40.640Z,99.90
2022-08-11T21:00:02.221Z,99.90
2022-08-11T21:06:32.783Z,99.90
2022-08-11T21:12:55.400Z,99.90
2022-08-11T21:19:55.093Z,99.90
2022-08-11T21:26:28.227Z,99.90
2022-08-11T21:32:51.273Z,99.90
2022-08-11T21:39:11.805Z,99.90
2022-08-11T21:45:33.874Z,99.90
2022-08-11T21:51:54.538Z,99.90
2022-08-11T21:58:17.140Z,99.90
2022-08-11T22:04:38.976Z,99.90
2022-08-11T22:10:59.598Z,99.90
2022-08-11T22:17:20.006Z,99.90
2022-08-11T22:23:41.320Z,99.90
2022-08-11T22:30:02.609Z,99.90
2022-08-11T22:36:23.389Z,99.90
2022-08-11T22:42:43.980Z,99.90
2022-08-11T22:49:06.337Z,99.90
2022-08-11T22:55:27.883Z,99.90
2022-08-11T23:01:56.261Z,99.90
2022-08-11T23:08:19.545Z,99.90
2022-08-11T23:14:41.030Z,99.90
2022-08-11T23:21:02.433Z,99.90
2022-08-11T23:27:24.923Z,99.90
2022-08-11T23:33:46.455Z,99.90
2022-08-11T23:40:06.887Z,99.90
2022-08-11T23:46:27.874Z,99.90
2022-08-11T23:52:49.740Z,99.90
2022-08-11T23:59:12.685Z,99.90
